createdAt,value
2023-05-17T00:00:54.741Z,15.77
2023-05-17T00:01:57.275Z,15.76
2023-05-17T00:02:59.687Z,15.76
2023-05-17T00:04:02.827Z,15.74
2023-05-17T00:05:06.014Z,15.77
2023-05-17T00:06:09.670Z,15.77
2023-05-17T00:07:12.158Z,15.74
2023-05-17T00:08:14.982Z,15.74
2023-05-17T00:09:17.367Z,15.77
2023-05-17T00:10:19.980Z,15.75
2023-05-17T00:11:23.441Z,15.75
2023-05-17T00:12:25.936Z,15.79
2023-05-17T00:13:28.524Z,15.81
2023-05-17T00:14:31.125Z,15.80
2023-05-17T00:15:34.421Z,15.77
2023-05-17T00:16:37.481Z,15.75
2023-05-17T00:17:40.169Z,15.79
2023-05-17T00:18:42.909Z,15.78
2023-05-17T00:19:45.735Z,15.76
2023-05-17T00:20:48.393Z,15.78
2023-05-17T00:21:50.792Z,15.74
2023-05-17T00:22:53.269Z,15.71
2023-05-17T00:23:55.808Z,15.73
2023-05-17T00:24:58.410Z,15.72
2023-05-17T00:26:01.175Z,15.70
2023-05-17T00:27:04.353Z,15.67
2023-05-17T00:28:06.788Z,15.64
2023-05-17T00:29:09.930Z,15.59
2023-05-17T00:30:14.045Z,15.60
2023-05-17T00:31:16.673Z,15.60
2023-05-17T00:32:19.896Z,15.59
2023-05-17T00:33:22.273Z,15.56
2023-05-17T00:34:24.656Z,15.56
2023-05-17T00:35:28.508Z,15.56
2023-05-17T00:36:31.269Z,15.56
2023-05-17T00:37:33.917Z,15.45
2023-05-17T00:38:36.792Z,15.45
2023-05-17T00:39:39.330Z,15.53
2023-05-17T00:40:42.337Z,15.61
2023-05-17T00:41:44.884Z,15.61
2023-05-17T00:42:47.552Z,15.56
2023-05-17T00:43:51.386Z,15.56
2023-05-17T00:44:53.936Z,15.55
2023-05-17T00:45:56.505Z,15.55
2023-05-17T00:47:01.040Z,15.55
2023-05-17T00:48:04.459Z,15.58
2023-05-17T00:49:07.156Z,15.60
2023-05-17T00:50:11.400Z,15.58
2023-05-17T00:51:15.969Z,15.60
2023-05-17T00:52:19.295Z,15.58
2023-05-17T00:53:22.565Z,15.59
2023-05-17T00:54:26.086Z,15.58
2023-05-17T00:55:29.402Z,15.59
2023-05-17T00:56:33.042Z,15.61
2023-05-17T00:57:37.192Z,15.62
2023-05-17T00:58:40.346Z,15.63
2023-05-17T00:59:44.491Z,15.63
2023-05-17T01:00:47.186Z,15.63
2023-05-17T01:01:51.072Z,15.62
2023-05-17T01:02:53.610Z,15.60
2023-05-17T01:03:57.201Z,15.59
2023-05-17T01:05:00.392Z,15.59
2023-05-17T01:06:05.973Z,15.59
2023-05-17T01:07:10.493Z,15.57
2023-05-17T01:08:13.752Z,15.60
2023-05-17T01:09:16.968Z,15.59
2023-05-17T01:10:19.823Z,15.61
2023-05-17T01:11:44.170Z,15.65
2023-05-17T01:12:50.710Z,15.65
2023-05-17T01:13:56.721Z,15.68
2023-05-17T01:15:12.277Z,15.70
2023-05-17T01:16:40.334Z,15.73
2023-05-17T01:18:04.978Z,15.70
2023-05-17T01:19:23.172Z,15.73
2023-05-17T01:20:38.246Z,15.71
2023-05-17T01:21:50.490Z,15.69
2023-05-17T01:23:21.972Z,15.70
2023-05-17T01:24:30.736Z,15.70
2023-05-17T01:25:57.848Z,15.73
2023-05-17T01:27:02.338Z,15.72
2023-05-17T01:28:07.613Z,15.73
2023-05-17T01:29:12.748Z,15.76
2023-05-17T01:30:17.835Z,15.77
2023-05-17T01:31:21.690Z,15.75
2023-05-17T01:32:25.393Z,15.74
2023-05-17T01:33:29.445Z,15.77
2023-05-17T01:34:32.148Z,15.80
2023-05-17T01:35:34.637Z,15.77
2023-05-17T01:36:37.224Z,15.77
2023-05-17T01:37:39.707Z,15.74
2023-05-17T01:38:42.182Z,15.73
2023-05-17T01:39:44.654Z,15.78
2023-05-17T01:40:56.582Z,15.78
2023-05-17T01:42:08.803Z,15.78
2023-05-17T01:43:44.187Z,15.78
2023-05-17T01:44:50.292Z,15.80
2023-05-17T01:46:15.151Z,15.81
2023-05-17T01:47:47.375Z,15.80
2023-05-17T01:50:07.003Z,15.88
2023-05-17T01:51:12.978Z,15.77
2023-05-17T01:52:31.240Z,15.81
2023-05-17T01:53:39.237Z,15.86
2023-05-17T01:54:48.772Z,15.86
2023-05-17T01:55:55.621Z,15.87
2023-05-17T01:57:01.575Z,15.88
2023-05-17T01:58:07.025Z,15.86
2023-05-17T01:59:12.805Z,15.91
2023-05-17T02:00:17.313Z,15.91
2023-05-17T02:01:22.540Z,15.93
2023-05-17T02:02:25.358Z,15.91
2023-05-17T02:03:29.006Z,15.92
2023-05-17T02:04:31.893Z,15.93
2023-05-17T02:05:36.193Z,15.92
2023-05-17T02:06:38.765Z,15.95
2023-05-17T02:07:41.324Z,15.96
2023-05-17T02:08:43.735Z,15.97
2023-05-17T02:09:46.504Z,15.94
2023-05-17T02:10:50.297Z,15.95
2023-05-17T02:11:53.622Z,15.95
2023-05-17T02:12:55.923Z,15.95
2023-05-17T02:13:58.331Z,15.96
2023-05-17T02:15:01.248Z,15.94
2023-05-17T02:16:04.067Z,15.97
2023-05-17T02:17:08.180Z,16.00
2023-05-17T02:18:11.341Z,16.01
2023-05-17T02:19:16.026Z,15.96
2023-05-17T02:20:20.507Z,15.96
2023-05-17T02:21:22.846Z,15.94
2023-05-17T02:22:25.207Z,15.95
2023-05-17T02:23:28.720Z,15.98
2023-05-17T02:24:31.667Z,15.94
2023-05-17T02:25:34.984Z,15.94
2023-05-17T02:26:37.765Z,15.99
2023-05-17T02:27:40.344Z,16.02
2023-05-17T02:28:43.765Z,16.01
2023-05-17T02:29:46.247Z,16.00
2023-05-17T02:30:48.913Z,15.98
2023-05-17T02:31:51.379Z,15.99
2023-05-17T02:32:56.269Z,15.97
2023-05-17T02:33:58.943Z,16.00
2023-05-17T02:35:01.412Z,15.97
2023-05-17T02:36:04.793Z,16.01
2023-05-17T02:37:08.457Z,16.03
2023-05-17T02:38:12.406Z,16.04
2023-05-17T02:39:16.837Z,16.04
2023-05-17T02:40:19.250Z,16.06
2023-05-17T02:41:21.610Z,16.07
2023-05-17T02:42:24.456Z,16.06
2023-05-17T02:43:27.001Z,16.06
2023-05-17T02:44:30.411Z,16.09
2023-05-17T02:45:33.030Z,16.06
2023-05-17T02:46:38.210Z,16.09
2023-05-17T02:47:40.614Z,16.10
2023-05-17T02:48:43.209Z,16.11
2023-05-17T02:49:45.602Z,16.12
2023-05-17T02:50:48.087Z,16.13
2023-05-17T02:51:50.559Z,16.17
2023-05-17T02:52:53.649Z,16.16
2023-05-17T02:53:56.122Z,16.16
2023-05-17T02:54:58.803Z,16.18
2023-05-17T02:56:01.517Z,16.19
2023-05-17T02:57:05.223Z,16.19
2023-05-17T02:58:07.762Z,16.19
2023-05-17T02:59:11.391Z,16.19
2023-05-17T03:00:16.213Z,16.18
2023-05-17T03:01:18.801Z,16.09
2023-05-17T03:02:21.408Z,16.15
2023-05-17T03:03:24.671Z,16.15
2023-05-17T03:04:27.143Z,16.17
2023-05-17T03:05:31.681Z,16.19
2023-05-17T03:06:34.620Z,16.19
2023-05-17T03:07:37.777Z,16.21
2023-05-17T03:08:40.433Z,16.19
2023-05-17T03:09:44.091Z,16.21
2023-05-17T03:10:48.366Z,16.18
2023-05-17T03:11:51.255Z,16.16
2023-05-17T03:12:56.605Z,16.10
2023-05-17T03:14:01.030Z,16.08
2023-05-17T03:15:06.287Z,16.10
2023-05-17T03:16:10.183Z,16.14
2023-05-17T03:17:13.758Z,16.18
2023-05-17T03:18:16.766Z,16.17
2023-05-17T03:19:20.002Z,16.16
2023-05-17T03:20:24.195Z,16.20
2023-05-17T03:21:26.707Z,16.21
2023-05-17T03:22:29.281Z,16.20
2023-05-17T03:23:34.942Z,16.19
2023-05-17T03:24:38.407Z,16.16
2023-05-17T03:25:41.085Z,16.18
2023-05-17T03:26:45.772Z,16.20
2023-05-17T03:27:48.855Z,16.21
2023-05-17T03:28:51.296Z,16.24
2023-05-17T03:29:55.270Z,16.26
2023-05-17T03:30:59.629Z,16.28
2023-05-17T03:32:04.828Z,16.30
2023-05-17T03:33:07.574Z,16.31
2023-05-17T03:34:11.551Z,16.32
2023-05-17T03:35:14.319Z,16.35
2023-05-17T03:36:19.758Z,16.36
2023-05-17T03:37:22.778Z,16.39
2023-05-17T03:38:26.070Z,16.41
2023-05-17T03:39:28.807Z,16.43
2023-05-17T03:40:31.440Z,16.39
2023-05-17T03:41:34.776Z,16.41
2023-05-17T03:42:38.541Z,16.43
2023-05-17T03:43:42.442Z,16.43
2023-05-17T03:44:46.855Z,16.47
2023-05-17T03:45:49.388Z,16.49
2023-05-17T03:46:53.253Z,16.43
2023-05-17T03:47:56.904Z,16.44
2023-05-17T03:49:00.827Z,16.38
2023-05-17T03:50:05.962Z,16.31
2023-05-17T03:51:09.745Z,16.32
2023-05-17T03:52:12.180Z,16.38
2023-05-17T03:53:14.989Z,16.41
2023-05-17T03:54:18.277Z,16.43
2023-05-17T03:55:21.226Z,16.45
2023-05-17T03:56:25.427Z,16.41
2023-05-17T03:57:28.466Z,16.43
2023-05-17T03:58:31.803Z,16.50
2023-05-17T03:59:34.200Z,16.51
2023-05-17T04:00:37.414Z,16.52
2023-05-17T04:01:43.243Z,16.53
2023-05-17T04:02:46.105Z,16.57
2023-05-17T04:03:49.590Z,16.55
2023-05-17T04:04:52.631Z,16.54
2023-05-17T04:06:05.537Z,16.59
2023-05-17T04:07:09.987Z,16.61
2023-05-17T04:08:12.669Z,16.57
2023-05-17T04:09:14.962Z,16.60
2023-05-17T04:10:18.613Z,16.55
2023-05-17T04:11:23.219Z,16.56
2023-05-17T04:12:26.091Z,16.64
2023-05-17T04:13:29.028Z,16.60
2023-05-17T04:14:31.336Z,16.63
2023-05-17T04:15:34.366Z,16.67
2023-05-17T04:16:37.878Z,16.73
2023-05-17T04:17:40.885Z,16.81
2023-05-17T04:18:45.158Z,16.84
2023-05-17T04:19:48.230Z,16.89
2023-05-17T04:20:51.878Z,16.85
2023-05-17T04:21:54.802Z,16.83
2023-05-17T04:22:58.568Z,16.86
2023-05-17T04:24:01.943Z,16.82
2023-05-17T04:25:05.003Z,16.86
2023-05-17T04:26:09.480Z,16.91
2023-05-17T04:27:13.969Z,16.91
2023-05-17T04:28:17.007Z,16.90
2023-05-17T04:29:20.765Z,16.89
2023-05-17T04:30:23.589Z,16.91
2023-05-17T04:31:26.157Z,17.00
2023-05-17T04:32:28.976Z,17.02
2023-05-17T04:33:31.972Z,17.04
2023-05-17T04:34:34.627Z,16.95
2023-05-17T04:35:38.778Z,16.95
2023-05-17T04:36:41.937Z,16.95
2023-05-17T04:37:45.179Z,16.99
2023-05-17T04:38:49.776Z,17.02
2023-05-17T04:39:54.333Z,17.04
2023-05-17T04:41:07.539Z,17.07
2023-05-17T04:42:11.972Z,17.07
2023-05-17T04:43:16.293Z,17.15
2023-05-17T04:44:18.773Z,17.15
2023-05-17T04:45:21.772Z,17.20
2023-05-17T04:46:27.214Z,17.26
2023-05-17T04:47:30.184Z,17.26
2023-05-17T04:48:33.168Z,17.32
2023-05-17T04:49:36.792Z,17.30
2023-05-17T04:50:39.317Z,17.28
2023-05-17T04:51:41.788Z,17.30
2023-05-17T04:52:47.018Z,17.34
2023-05-17T04:53:49.794Z,17.42
2023-05-17T04:54:53.600Z,17.49
2023-05-17T04:55:57.125Z,17.49
2023-05-17T04:57:00.207Z,17.48
2023-05-17T04:58:16.272Z,17.53
2023-05-17T04:59:19.608Z,17.58
2023-05-17T05:00:23.339Z,17.63
2023-05-17T05:01:28.928Z,17.68
2023-05-17T05:02:32.220Z,17.74
2023-05-17T05:03:36.150Z,17.76
2023-05-17T05:04:40.038Z,17.75
2023-05-17T05:05:43.461Z,17.75
2023-05-17T05:06:46.746Z,17.79
2023-05-17T05:07:50.541Z,17.83
2023-05-17T05:08:53.286Z,17.85
2023-05-17T05:09:55.933Z,17.86
2023-05-17T05:10:59.539Z,17.92
2023-05-17T05:12:04.226Z,17.94
2023-05-17T05:13:06.657Z,18.00
2023-05-17T05:14:09.270Z,17.97
2023-05-17T05:15:12.226Z,18.04
2023-05-17T05:16:17.385Z,18.11
2023-05-17T05:17:20.411Z,18.07
2023-05-17T05:18:23.646Z,18.07
2023-05-17T05:19:26.479Z,18.04
2023-05-17T05:20:31.556Z,18.12
2023-05-17T05:21:34.291Z,18.17
2023-05-17T05:22:36.864Z,18.22
2023-05-17T05:23:39.414Z,18.22
2023-05-17T05:24:44.853Z,18.25
2023-05-17T05:25:48.261Z,18.26
2023-05-17T05:26:51.227Z,18.25
2023-05-17T05:27:54.502Z,18.22
2023-05-17T05:28:57.887Z,18.26
2023-05-17T05:30:01.376Z,18.28
2023-05-17T05:31:04.475Z,18.35
2023-05-17T05:32:08.916Z,18.32
2023-05-17T05:33:13.860Z,18.35
2023-05-17T05:34:16.974Z,18.36
2023-05-17T05:35:22.711Z,18.40
2023-05-17T05:36:25.478Z,18.37
2023-05-17T05:37:29.535Z,18.43
2023-05-17T05:38:31.983Z,18.50
2023-05-17T05:39:34.886Z,18.49
2023-05-17T05:40:39.651Z,18.56
2023-05-17T05:41:43.391Z,18.64
2023-05-17T05:42:45.917Z,18.74
2023-05-17T05:43:48.219Z,18.78
2023-05-17T05:44:50.628Z,18.87
2023-05-17T05:45:53.483Z,18.86
2023-05-17T05:46:58.391Z,18.86
2023-05-17T05:48:01.274Z,18.87
2023-05-17T05:49:04.401Z,18.88
2023-05-17T05:50:08.979Z,18.93
2023-05-17T05:51:12.013Z,19.06
2023-05-17T05:52:16.506Z,19.06
2023-05-17T05:53:20.033Z,18.99
2023-05-17T05:54:30.753Z,19.08
2023-05-17T05:55:33.606Z,19.20
2023-05-17T05:56:36.130Z,19.29
2023-05-17T05:57:38.737Z,19.30
2023-05-17T05:58:42.374Z,19.40
2023-05-17T05:59:45.617Z,19.36
2023-05-17T06:00:48.295Z,19.38
2023-05-17T06:01:53.413Z,19.45
2023-05-17T06:02:56.870Z,19.39
2023-05-17T06:03:59.994Z,19.28
2023-05-17T06:05:03.219Z,19.37
2023-05-17T06:06:07.465Z,19.40
2023-05-17T06:07:10.358Z,19.53
2023-05-17T06:08:12.909Z,19.57
2023-05-17T06:09:16.198Z,19.62
2023-05-17T06:10:19.143Z,19.68
2023-05-17T06:11:23.317Z,19.68
2023-05-17T06:12:25.890Z,19.56
2023-05-17T06:13:29.592Z,19.70
2023-05-17T06:14:32.539Z,19.81
2023-05-17T06:15:36.305Z,19.88
2023-05-17T06:16:39.034Z,19.82
2023-05-17T06:17:41.427Z,19.87
2023-05-17T06:18:44.018Z,20.02
2023-05-17T06:19:48.305Z,20.06
2023-05-17T06:20:51.534Z,20.09
2023-05-17T06:21:54.348Z,20.07
2023-05-17T06:22:57.037Z,20.18
2023-05-17T06:23:59.406Z,20.24
2023-05-17T06:25:02.018Z,20.30
2023-05-17T06:26:07.528Z,20.29
2023-05-17T06:27:10.140Z,20.31
2023-05-17T06:28:12.608Z,20.28
2023-05-17T06:29:15.246Z,20.36
2023-05-17T06:30:18.379Z,20.39
2023-05-17T06:31:21.221Z,20.36
2023-05-17T06:32:25.109Z,20.23
2023-05-17T06:33:27.538Z,20.15
2023-05-17T06:34:30.088Z,20.19
2023-05-17T06:35:40.799Z,20.25
2023-05-17T06:36:40.763Z,20.33
2023-05-17T06:37:49.352Z,20.41
2023-05-17T06:38:47.870Z,20.48
2023-05-17T06:40:00.125Z,20.58
2023-05-17T06:40:58.491Z,20.54
2023-05-17T06:42:01.446Z,20.55
2023-05-17T06:43:05.276Z,20.52
2023-05-17T06:44:08.679Z,20.49
2023-05-17T06:45:11.760Z,20.51
2023-05-17T06:46:14.966Z,20.56
2023-05-17T06:47:20.173Z,20.63
2023-05-17T06:48:23.115Z,20.57
2023-05-17T06:49:26.633Z,20.55
2023-05-17T06:50:31.084Z,20.56
2023-05-17T06:51:33.775Z,20.56
2023-05-17T06:52:36.355Z,20.50
2023-05-17T06:53:39.519Z,20.55
2023-05-17T06:54:42.038Z,20.55
2023-05-17T06:55:44.600Z,20.43
2023-05-17T06:56:47.332Z,20.54
2023-05-17T06:57:50.623Z,20.56
2023-05-17T06:58:53.482Z,20.52
2023-05-17T06:59:56.122Z,20.55
2023-05-17T07:00:58.864Z,20.48
2023-05-17T07:02:01.327Z,20.49
2023-05-17T07:03:03.849Z,20.43
2023-05-17T07:04:08.500Z,20.42
2023-05-17T07:05:10.852Z,20.61
2023-05-17T07:06:13.760Z,20.61
2023-05-17T07:07:16.286Z,20.62
2023-05-17T07:08:18.864Z,20.54
2023-05-17T07:09:21.667Z,20.54
2023-05-17T07:10:24.062Z,20.56
2023-05-17T07:11:27.515Z,20.65
2023-05-17T07:12:30.060Z,20.66
2023-05-17T07:13:33.473Z,20.70
2023-05-17T07:14:37.056Z,20.73
2023-05-17T07:15:40.962Z,20.75
2023-05-17T07:16:43.715Z,20.87
2023-05-17T07:17:46.696Z,20.84
2023-05-17T07:18:49.358Z,21.01
2023-05-17T07:19:51.951Z,21.08
2023-05-17T07:20:55.934Z,21.09
2023-05-17T07:21:58.546Z,21.02
2023-05-17T07:23:00.951Z,21.20
2023-05-17T07:24:03.716Z,21.20
2023-05-17T07:25:08.067Z,21.27
2023-05-17T07:26:11.119Z,21.34
2023-05-17T07:27:13.750Z,21.31
2023-05-17T07:28:16.271Z,21.37
2023-05-17T07:29:19.650Z,21.46
2023-05-17T07:30:22.217Z,21.46
2023-05-17T07:31:25.103Z,21.62
2023-05-17T07:32:27.571Z,21.58
2023-05-17T07:33:30.486Z,21.62
2023-05-17T07:34:33.028Z,21.68
2023-05-17T07:35:37.809Z,21.71
2023-05-17T07:36:40.325Z,21.76
2023-05-17T07:37:42.858Z,21.79
2023-05-17T07:38:45.488Z,21.82
2023-05-17T07:39:49.256Z,21.89
2023-05-17T07:40:52.425Z,21.81
2023-05-17T07:41:55.655Z,21.92
2023-05-17T07:42:58.282Z,22.05
2023-05-17T07:44:00.869Z,22.16
2023-05-17T07:45:03.821Z,22.27
2023-05-17T07:46:06.708Z,22.22
2023-05-17T07:47:09.377Z,22.25
2023-05-17T07:48:11.934Z,22.42
2023-05-17T07:49:16.479Z,22.42
2023-05-17T07:50:19.135Z,22.47
2023-05-17T07:51:21.407Z,22.39
2023-05-17T07:52:23.934Z,22.45
2023-05-17T07:53:26.409Z,22.61
2023-05-17T07:54:29.311Z,22.52
2023-05-17T07:55:32.260Z,22.76
2023-05-17T07:56:36.134Z,22.70
2023-05-17T07:57:38.841Z,22.71
2023-05-17T07:58:42.217Z,22.83
2023-05-17T07:59:45.091Z,22.97
2023-05-17T08:00:49.099Z,23.07
2023-05-17T08:01:52.142Z,23.22
2023-05-17T08:02:57.191Z,23.34
2023-05-17T08:03:59.893Z,23.34
2023-05-17T08:05:02.732Z,23.29
2023-05-17T08:06:05.482Z,23.33
2023-05-17T08:07:08.024Z,23.39
2023-05-17T08:08:10.580Z,23.52
2023-05-17T08:09:13.165Z,23.52
2023-05-17T08:10:16.152Z,23.50
2023-05-17T08:11:19.706Z,23.48
2023-05-17T08:12:23.228Z,23.44
2023-05-17T08:13:29.346Z,23.33
2023-05-17T08:14:31.766Z,23.33
2023-05-17T08:15:34.241Z,23.23
2023-05-17T08:16:37.145Z,23.31
2023-05-17T08:17:40.100Z,23.37
2023-05-17T08:18:43.849Z,23.37
2023-05-17T08:19:47.806Z,23.41
2023-05-17T08:20:50.833Z,23.37
2023-05-17T08:21:55.482Z,23.40
2023-05-17T08:22:58.017Z,23.43
2023-05-17T08:24:02.157Z,23.49
2023-05-17T08:25:06.570Z,23.38
2023-05-17T08:26:09.496Z,23.28
2023-05-17T08:27:12.138Z,23.38
2023-05-17T08:28:14.978Z,23.49
2023-05-17T08:29:17.302Z,23.57
2023-05-17T08:30:28.975Z,23.62
2023-05-17T08:31:24.552Z,23.67
2023-05-17T08:32:29.935Z,23.63
2023-05-17T08:33:32.841Z,23.70
2023-05-17T08:34:36.213Z,23.77
2023-05-17T08:35:38.820Z,23.72
2023-05-17T08:36:42.308Z,23.74
2023-05-17T08:37:45.636Z,23.72
2023-05-17T08:38:49.305Z,23.80
2023-05-17T08:39:52.108Z,23.85
2023-05-17T08:40:55.064Z,23.80
2023-05-17T08:41:59.017Z,23.80
2023-05-17T08:43:02.722Z,23.97
2023-05-17T08:44:05.866Z,24.00
2023-05-17T08:45:10.118Z,23.96
2023-05-17T08:46:15.434Z,23.95
2023-05-17T08:47:28.065Z,24.02
2023-05-17T08:48:31.678Z,24.00
2023-05-17T08:49:37.896Z,24.07
2023-05-17T08:50:41.151Z,24.16
2023-05-17T08:51:46.883Z,24.03
2023-05-17T08:52:49.788Z,24.04
2023-05-17T08:53:52.835Z,24.06
2023-05-17T08:54:55.815Z,24.13
2023-05-17T08:56:00.974Z,24.11
2023-05-17T08:57:06.781Z,24.08
2023-05-17T08:58:11.743Z,23.96
2023-05-17T08:59:15.094Z,24.03
2023-05-17T09:00:21.331Z,24.09
2023-05-17T09:01:25.997Z,24.18
2023-05-17T09:02:31.016Z,24.21
2023-05-17T09:03:35.288Z,24.31
2023-05-17T09:04:38.979Z,24.28
2023-05-17T09:05:43.251Z,24.38
2023-05-17T09:06:46.584Z,24.21
2023-05-17T09:07:49.325Z,24.21
2023-05-17T09:08:54.038Z,24.17
2023-05-17T09:09:57.952Z,24.22
2023-05-17T09:11:00.514Z,24.40
2023-05-17T09:12:03.958Z,24.50
2023-05-17T09:13:07.116Z,24.49
2023-05-17T09:14:10.174Z,24.53
2023-05-17T09:15:16.716Z,24.65
2023-05-17T09:16:21.381Z,24.69
2023-05-17T09:17:24.472Z,24.71
2023-05-17T09:18:32.923Z,24.58
2023-05-17T09:19:39.302Z,24.49
2023-05-17T09:20:42.202Z,24.37
2023-05-17T09:21:48.525Z,24.44
2023-05-17T09:22:52.936Z,24.44
2023-05-17T09:24:05.306Z,24.59
2023-05-17T09:25:02.496Z,24.56
2023-05-17T09:26:08.258Z,24.57
2023-05-17T09:27:20.052Z,24.57
2023-05-17T09:28:23.106Z,24.66
2023-05-17T09:29:26.657Z,24.71
2023-05-17T09:30:32.817Z,24.65
2023-05-17T09:31:35.651Z,24.48
2023-05-17T09:32:44.365Z,24.44
2023-05-17T09:33:49.599Z,24.47
2023-05-17T09:34:52.202Z,24.54
2023-05-17T09:35:55.476Z,24.59
2023-05-17T09:36:58.135Z,24.55
2023-05-17T09:38:08.910Z,24.59
2023-05-17T09:39:14.237Z,24.47
2023-05-17T09:40:26.376Z,24.54
2023-05-17T09:41:44.988Z,24.56
2023-05-17T09:42:49.309Z,24.63
2023-05-17T09:43:52.113Z,24.78
2023-05-17T09:44:57.586Z,24.83
2023-05-17T09:46:00.096Z,24.87
2023-05-17T09:47:03.668Z,24.94
2023-05-17T09:48:17.184Z,24.99
2023-05-17T09:49:19.745Z,24.97
2023-05-17T09:50:25.379Z,24.95
2023-05-17T09:51:35.354Z,24.96
2023-05-17T09:52:40.571Z,25.02
2023-05-17T09:53:43.155Z,25.08
2023-05-17T09:54:55.236Z,25.00
2023-05-17T09:56:03.726Z,25.04
2023-05-17T09:57:08.433Z,25.01
2023-05-17T09:58:11.597Z,25.02
2023-05-17T09:59:15.577Z,24.90
2023-05-17T10:00:21.516Z,24.89
2023-05-17T10:01:27.355Z,24.93
2023-05-17T10:02:35.438Z,24.86
2023-05-17T10:03:39.652Z,24.90
2023-05-17T10:04:44.590Z,24.88
2023-05-17T10:05:50.939Z,24.94
2023-05-17T10:06:54.429Z,24.90
2023-05-17T10:07:57.143Z,24.88
2023-05-17T10:09:02.010Z,24.72
2023-05-17T10:10:06.629Z,24.76
2023-05-17T10:11:10.873Z,24.88
2023-05-17T10:12:23.709Z,24.95
2023-05-17T10:13:30.140Z,24.84
2023-05-17T10:14:35.398Z,24.98
2023-05-17T10:15:39.904Z,25.09
2023-05-17T10:16:43.150Z,25.12
2023-05-17T10:17:46.011Z,25.16
2023-05-17T10:18:49.694Z,25.15
2023-05-17T10:19:53.259Z,25.14
2023-05-17T10:20:57.794Z,25.02
2023-05-17T10:22:11.506Z,25.17
2023-05-17T10:23:07.623Z,25.20
2023-05-17T10:24:11.797Z,25.17
2023-05-17T10:25:15.075Z,25.21
2023-05-17T10:26:18.458Z,25.31
2023-05-17T10:27:22.492Z,25.36
2023-05-17T10:28:26.803Z,25.29
2023-05-17T10:29:34.211Z,25.40
2023-05-17T10:30:39.301Z,25.48
2023-05-17T10:31:45.898Z,25.59
2023-05-17T10:32:51.386Z,25.63
2023-05-17T10:33:54.612Z,25.67
2023-05-17T10:35:10.351Z,25.79
2023-05-17T10:36:07.970Z,25.95
2023-05-17T10:37:13.574Z,25.97
2023-05-17T10:38:17.688Z,26.02
2023-05-17T10:39:22.875Z,25.94
2023-05-17T10:40:25.389Z,25.86
2023-05-17T10:41:31.695Z,25.86
2023-05-17T10:42:36.015Z,25.77
2023-05-17T10:43:41.288Z,25.78
2023-05-17T10:44:44.032Z,25.77
2023-05-17T10:45:46.601Z,25.70
2023-05-17T10:46:54.825Z,25.66
2023-05-17T10:48:01.285Z,25.72
2023-05-17T10:49:04.040Z,25.72
2023-05-17T10:50:15.770Z,25.52
2023-05-17T10:51:26.835Z,25.54
2023-05-17T10:52:30.598Z,25.61
2023-05-17T10:53:33.322Z,25.60
2023-05-17T10:54:38.699Z,25.61
2023-05-17T10:55:44.230Z,25.55
2023-05-17T10:56:53.676Z,25.55
2023-05-17T10:58:12.877Z,25.52
2023-05-17T10:59:24.686Z,25.51
2023-05-17T11:00:29.983Z,25.44
2023-05-17T11:02:04.198Z,25.41
2023-05-17T11:03:21.226Z,25.35
2023-05-17T11:04:35.683Z,25.46
2023-05-17T11:05:43.024Z,25.57
2023-05-17T11:06:45.757Z,25.65
2023-05-17T11:07:48.308Z,25.75
2023-05-17T11:09:08.988Z,25.68
2023-05-17T11:10:13.410Z,25.72
2023-05-17T11:11:20.616Z,25.73
2023-05-17T11:12:41.260Z,25.74
2023-05-17T11:13:55.730Z,25.70
2023-05-17T11:14:58.624Z,25.67
2023-05-17T11:16:07.956Z,25.55
2023-05-17T11:17:17.560Z,25.59
2023-05-17T11:18:30.491Z,25.62
2023-05-17T11:19:25.953Z,25.50
2023-05-17T11:20:32.272Z,25.42
2023-05-17T11:21:35.463Z,25.48
2023-05-17T11:23:57.014Z,25.66
2023-05-17T11:25:01.515Z,25.54
2023-05-17T11:26:25.946Z,25.57
2023-05-17T11:27:32.927Z,25.55
2023-05-17T11:28:37.945Z,25.56
2023-05-17T11:29:41.862Z,25.60
2023-05-17T11:30:46.754Z,25.52
2023-05-17T11:31:51.577Z,25.56
2023-05-17T11:33:03.024Z,25.54
2023-05-17T11:34:07.308Z,25.57
2023-05-17T11:35:12.678Z,25.62
2023-05-17T11:36:18.937Z,25.55
2023-05-17T11:37:29.121Z,25.58
2023-05-17T11:38:32.298Z,25.60
2023-05-17T11:39:35.032Z,25.74
2023-05-17T11:40:38.812Z,25.87
2023-05-17T11:41:51.030Z,25.90
2023-05-17T11:43:13.573Z,25.89
2023-05-17T11:47:07.093Z,26.40
2023-05-17T11:48:13.625Z,26.38
2023-05-17T11:49:26.989Z,26.50
2023-05-17T11:51:44.841Z,26.53
2023-05-17T11:52:48.034Z,26.49
2023-05-17T11:53:51.339Z,26.60
2023-05-17T11:54:56.274Z,26.55
2023-05-17T11:56:02.515Z,26.48
2023-05-17T11:57:06.562Z,26.56
2023-05-17T11:58:14.549Z,26.70
2023-05-17T11:59:20.985Z,26.78
2023-05-17T12:00:28.385Z,26.80
2023-05-17T12:01:45.525Z,26.81
2023-05-17T12:02:47.998Z,26.86
2023-05-17T12:03:55.965Z,26.96
2023-05-17T12:04:59.113Z,26.89
2023-05-17T12:06:07.547Z,26.82
2023-05-17T12:07:11.484Z,26.88
2023-05-17T12:08:18.064Z,26.54
2023-05-17T12:09:22.491Z,26.48
2023-05-17T12:10:25.426Z,26.56
2023-05-17T12:11:28.613Z,26.68
2023-05-17T12:12:33.071Z,26.76
2023-05-17T12:13:35.558Z,26.84
2023-05-17T12:14:37.927Z,26.83
2023-05-17T12:15:42.824Z,26.70
2023-05-17T12:16:48.847Z,26.70
2023-05-17T12:17:53.370Z,26.50
2023-05-17T12:18:57.822Z,26.57
2023-05-17T12:20:09.088Z,26.62
2023-05-17T12:21:14.323Z,26.58
2023-05-17T12:22:17.142Z,26.68
2023-05-17T12:23:26.411Z,26.75
2023-05-17T12:24:32.301Z,26.77
2023-05-17T12:25:34.693Z,26.73
2023-05-17T12:26:45.427Z,26.79
2023-05-17T12:27:47.861Z,26.79
2023-05-17T12:28:55.983Z,26.78
2023-05-17T12:29:59.346Z,26.65
2023-05-17T12:31:03.348Z,26.68
2023-05-17T12:32:09.106Z,26.66
2023-05-17T12:33:12.120Z,26.67
2023-05-17T12:34:16.331Z,26.71
2023-05-17T12:35:18.829Z,26.74
2023-05-17T12:36:22.084Z,26.77
2023-05-17T12:37:24.321Z,26.84
2023-05-17T12:38:32.346Z,26.89
2023-05-17T12:39:35.159Z,26.88
2023-05-17T12:40:43.272Z,26.96
2023-05-17T12:41:46.955Z,26.98
2023-05-17T12:42:49.265Z,27.06
2023-05-17T12:43:55.002Z,26.91
2023-05-17T12:44:56.200Z,26.96
2023-05-17T12:46:10.997Z,26.98
2023-05-17T12:47:13.320Z,26.96
2023-05-17T12:48:15.779Z,27.06
2023-05-17T12:49:20.391Z,27.05
2023-05-17T12:50:31.874Z,27.05
2023-05-17T12:51:43.168Z,26.98
2023-05-17T12:52:47.256Z,26.74
2023-05-17T12:53:56.748Z,26.72
2023-05-17T12:55:00.431Z,26.80
2023-05-17T12:56:04.759Z,26.70
2023-05-17T12:57:15.340Z,26.51
2023-05-17T12:58:17.647Z,26.60
2023-05-17T12:59:24.708Z,26.45
2023-05-17T13:00:29.794Z,26.53
2023-05-17T13:01:34.524Z,26.53
2023-05-17T13:02:39.848Z,26.42
2023-05-17T13:03:47.114Z,26.42
2023-05-17T13:04:51.725Z,26.47
2023-05-17T13:06:04.598Z,26.49
2023-05-17T13:07:07.555Z,26.50
2023-05-17T13:08:22.130Z,26.41
2023-05-17T13:09:27.357Z,26.31
2023-05-17T13:10:30.967Z,26.29
2023-05-17T13:11:43.172Z,26.43
2023-05-17T13:12:58.747Z,26.34
2023-05-17T13:14:01.168Z,26.23
2023-05-17T13:15:06.829Z,26.38
2023-05-17T13:16:10.043Z,26.44
2023-05-17T13:17:27.658Z,26.41
2023-05-17T13:18:30.623Z,26.33
2023-05-17T13:19:35.305Z,26.26
2023-05-17T13:20:37.876Z,26.22
2023-05-17T13:21:41.404Z,26.22
2023-05-17T13:22:47.159Z,26.21
2023-05-17T13:23:50.085Z,26.22
2023-05-17T13:24:52.770Z,26.02
2023-05-17T13:25:55.478Z,26.05
2023-05-17T13:26:57.902Z,26.04
2023-05-17T13:28:01.868Z,25.98
2023-05-17T13:29:04.467Z,26.02
2023-05-17T13:30:09.260Z,25.98
2023-05-17T13:31:12.155Z,25.96
2023-05-17T13:32:14.835Z,26.06
2023-05-17T13:33:18.467Z,26.13
2023-05-17T13:34:21.142Z,26.02
2023-05-17T13:35:23.487Z,26.06
2023-05-17T13:36:26.804Z,26.06
2023-05-17T13:37:29.252Z,26.08
2023-05-17T13:38:32.039Z,26.04
2023-05-17T13:39:34.366Z,25.95
2023-05-17T13:40:37.480Z,26.02
2023-05-17T13:41:41.283Z,26.05
2023-05-17T13:42:44.072Z,26.06
2023-05-17T13:43:46.818Z,26.02
2023-05-17T13:44:49.454Z,25.99
2023-05-17T13:45:53.520Z,25.83
2023-05-17T13:46:56.193Z,25.84
2023-05-17T13:47:59.102Z,25.91
2023-05-17T13:49:08.071Z,25.88
2023-05-17T13:50:11.503Z,25.75
2023-05-17T13:51:14.186Z,25.78
2023-05-17T13:52:17.945Z,25.72
2023-05-17T13:53:21.420Z,25.72
2023-05-17T13:54:23.838Z,25.81
2023-05-17T13:55:26.179Z,25.87
2023-05-17T13:56:29.626Z,25.88
2023-05-17T13:57:32.401Z,25.87
2023-05-17T13:58:34.558Z,25.88
2023-05-17T13:59:37.209Z,25.75